Frenchville, ME

5:56 AM EST on December 18, 2014 (GMT -0500)
Northern Aroostook Regional | Change Station
CLOSE
Current Station
Airport
Location: Frenchville,
Elevation: 988 ft
Nearby Weather Stations
Active Advisory: Winter Weather Advisory Active Notice: Public Information Statement

Elev 988 ft 47.29 °N, 68.31 °W | Updated 11 minutes ago

Light Snow
Light Snow Mist
25 °F
Feels Like 15 °F
N
10
Wind Variable Wind from North

Today
High -- | Low -- °F
--% Chance of Precip.
Yesterday
High -- | Low -- °F
Precip. -- in
7:15 AM 3:44 PM
Waning Crescent, 15% visible
Pressure 29.62 in
Visibility 2.0 miles
Clouds Scattered Clouds 600 ft
Overcast 1800 ft
Windchill 15 °F
Dew Point 23 °F
Humidity 92%
Rainfall 0.13 in
Snow Depth Not available.
UV 0 out of 12
Pollen .10 out of 12
Air Quality Not available.
Flu Activity Not available.
SPECI KFVE 181045Z AUTO 35009KT 2SM -SN BR SCT006 OVC018 M04/M05 A2962 RMK AO2 P0000 T10391050

More Conditions Fewer Conditions

Pressure 29.62 in
Visibility 2.0 miles
Clouds Scattered Clouds 600 ft
Overcast 1800 ft
Windchill 15 °F
Dew Point 23 °F
Humidity 92%
Rainfall 0.13 in
Snow Depth Not available.
UV 0 out of 12
Pollen .10 out of 12
Air Quality Not available.
Flu Activity Not available.
SPECI KFVE 181045Z AUTO 35009KT 2SM -SN BR SCT006 OVC018 M04/M05 A2962 RMK AO2 P0000 T10391050

More Conditions Fewer Conditions

10-Day Weather Forecast

Almanac

Astronomy

Dec. 18, 2014 Rise Set
Actual Time
Civil Twilight
Nautical Twilight
Astronomical Twilight
Moon
Length of Visible Light
Length of Day
Tomorrow will be .
, % of the Moon is Illuminated

Today's Extremes

State Highs State Lows

Community

WunderPhotos

Upload Photos

1,778,917 photos uploaded!

WunderBlogs® & News

Nearby

Air Quality

  Air Quality AQ Index Pollutant
Not available.

Snow Depth

Station Depth Elevation

Earthquake Activity

City Distance Mag. Time & Date
Minimum magnitude displayed is 2.5.

Coastal Water Temperatures

Place Temperature

Nearby Weather Stations